sensor_id;sensor_type;location;lat;lon;timestamp;P1;durP1;ratioP1;P2;durP2;ratioP2
49031;SDS011;63443;48.366;10.876;2022-11-20T00:02:24;9.68;;;5.10;;
49031;SDS011;63443;48.366;10.876;2022-11-20T00:04:50;5.80;;;5.30;;
49031;SDS011;63443;48.366;10.876;2022-11-20T00:07:16;6.15;;;5.55;;
49031;SDS011;63443;48.366;10.876;2022-11-20T00:09:41;6.20;;;5.60;;
49031;SDS011;63443;48.366;10.876;2022-11-20T00:12:07;6.10;;;5.55;;
49031;SDS011;63443;48.366;10.876;2022-11-20T00:14:32;6.03;;;5.43;;
49031;SDS011;63443;48.366;10.876;2022-11-20T00:16:58;5.57;;;5.07;;
49031;SDS011;63443;48.366;10.876;2022-11-20T00:19:23;8.82;;;7.40;;
49031;SDS011;63443;48.366;10.876;2022-11-20T00:21:49;5.32;;;4.75;;
49031;SDS011;63443;48.366;10.876;2022-11-20T00:24:16;5.78;;;4.68;;
49031;SDS011;63443;48.366;10.876;2022-11-20T00:26:42;6.80;;;5.63;;
49031;SDS011;63443;48.366;10.876;2022-11-20T00:29:08;12.20;;;5.72;;
49031;SDS011;63443;48.366;10.876;2022-11-20T00:31:35;5.45;;;4.95;;
49031;SDS011;63443;48.366;10.876;2022-11-20T00:34:00;9.95;;;5.05;;
49031;SDS011;63443;48.366;10.876;2022-11-20T00:36:27;5.32;;;4.25;;
49031;SDS011;63443;48.366;10.876;2022-11-20T00:38:54;5.10;;;4.68;;
49031;SDS011;63443;48.366;10.876;2022-11-20T00:41:21;5.80;;;5.22;;
49031;SDS011;63443;48.366;10.876;2022-11-20T00:43:47;5.93;;;5.30;;
49031;SDS011;63443;48.366;10.876;2022-11-20T00:46:17;6.35;;;5.47;;
49031;SDS011;63443;48.366;10.876;2022-11-20T00:48:45;5.07;;;4.53;;
49031;SDS011;63443;48.366;10.876;2022-11-20T00:51:12;6.32;;;4.85;;
49031;SDS011;63443;48.366;10.876;2022-11-20T00:53:39;6.35;;;5.10;;
49031;SDS011;63443;48.366;10.876;2022-11-20T00:56:06;5.28;;;4.65;;
49031;SDS011;63443;48.366;10.876;2022-11-20T00:58:35;5.75;;;4.93;;
49031;SDS011;63443;48.366;10.876;2022-11-20T01:01:06;6.78;;;5.25;;
49031;SDS011;63443;48.366;10.876;2022-11-20T01:03:41;7.65;;;5.43;;
49031;SDS011;63443;48.366;10.876;2022-11-20T01:06:11;7.55;;;4.97;;
49031;SDS011;63443;48.366;10.876;2022-11-20T01:08:39;5.95;;;4.72;;
49031;SDS011;63443;48.366;10.876;2022-11-20T01:11:07;6.50;;;5.93;;
49031;SDS011;63443;48.366;10.876;2022-11-20T01:13:35;6.70;;;5.18;;
49031;SDS011;63443;48.366;10.876;2022-11-20T01:16:10;5.53;;;5.00;;
49031;SDS011;63443;48.366;10.876;2022-11-20T01:18:42;6.30;;;5.63;;
49031;SDS011;63443;48.366;10.876;2022-11-20T01:21:20;6.85;;;5.35;;
49031;SDS011;63443;48.366;10.876;2022-11-20T01:23:51;6.47;;;5.03;;
49031;SDS011;63443;48.366;10.876;2022-11-20T01:26:18;8.02;;;6.00;;
49031;SDS011;63443;48.366;10.876;2022-11-20T01:28:45;6.65;;;5.78;;
49031;SDS011;63443;48.366;10.876;2022-11-20T01:31:12;6.72;;;5.72;;
49031;SDS011;63443;48.366;10.876;2022-11-20T01:33:41;6.93;;;5.35;;
49031;SDS011;63443;48.366;10.876;2022-11-20T01:36:07;6.13;;;4.90;;
49031;SDS011;63443;48.366;10.876;2022-11-20T01:38:34;6.82;;;5.03;;
49031;SDS011;63443;48.366;10.876;2022-11-20T01:40:59;6.00;;;4.60;;
49031;SDS011;63443;48.366;10.876;2022-11-20T01:43:25;5.95;;;5.35;;
49031;SDS011;63443;48.366;10.876;2022-11-20T01:48:30;6.40;;;5.80;;
49031;SDS011;63443;48.366;10.876;2022-11-20T01:51:10;7.00;;;6.30;;
49031;SDS011;63443;48.366;10.876;2022-11-20T01:53:41;6.53;;;5.95;;
49031;SDS011;63443;48.366;10.876;2022-11-20T01:56:08;6.05;;;5.53;;
49031;SDS011;63443;48.366;10.876;2022-11-20T01:58:37;7.18;;;5.45;;
49031;SDS011;63443;48.366;10.876;2022-11-20T02:01:08;9.35;;;6.03;;
49031;SDS011;63443;48.366;10.876;2022-11-20T02:03:34;5.93;;;5.28;;
49031;SDS011;63443;48.366;10.876;2022-11-20T02:08:42;5.35;;;4.78;;
49031;SDS011;63443;48.366;10.876;2022-11-20T02:11:08;6.75;;;5.57;;
49031;SDS011;63443;48.366;10.876;2022-11-20T02:13:34;5.43;;;4.88;;
49031;SDS011;63443;48.366;10.876;2022-11-20T02:16:16;5.95;;;5.03;;
49031;SDS011;63443;48.366;10.876;2022-11-20T02:18:50;10.10;;;5.65;;
49031;SDS011;63443;48.366;10.876;2022-11-20T02:26:32;5.88;;;5.28;;
49031;SDS011;63443;48.366;10.876;2022-11-20T02:29:02;5.57;;;5.07;;
49031;SDS011;63443;48.366;10.876;2022-11-20T02:31:28;5.55;;;5.03;;
49031;SDS011;63443;48.366;10.876;2022-11-20T02:33:57;8.40;;;5.75;;
49031;SDS011;63443;48.366;10.876;2022-11-20T02:36:23;6.43;;;5.82;;
49031;SDS011;63443;48.366;10.876;2022-11-20T02:38:51;6.75;;;6.03;;
49031;SDS011;63443;48.366;10.876;2022-11-20T02:41:17;7.50;;;5.63;;
49031;SDS011;63443;48.366;10.876;2022-11-20T02:43:42;6.60;;;5.93;;
49031;SDS011;63443;48.366;10.876;2022-11-20T02:46:08;6.82;;;5.18;;
49031;SDS011;63443;48.366;10.876;2022-11-20T02:48:34;5.68;;;5.07;;
49031;SDS011;63443;48.366;10.876;2022-11-20T02:50:59;5.60;;;4.78;;
49031;SDS011;63443;48.366;10.876;2022-11-20T02:53:25;6.72;;;5.60;;
49031;SDS011;63443;48.366;10.876;2022-11-20T02:55:51;6.22;;;5.47;;
49031;SDS011;63443;48.366;10.876;2022-11-20T02:58:17;5.45;;;4.95;;
49031;SDS011;63443;48.366;10.876;2022-11-20T03:00:42;4.30;;;4.00;;
49031;SDS011;63443;48.366;10.876;2022-11-20T03:03:08;6.25;;;5.63;;
49031;SDS011;63443;48.366;10.876;2022-11-20T03:05:33;7.18;;;5.05;;
49031;SDS011;63443;48.366;10.876;2022-11-20T03:07:59;5.47;;;4.97;;
49031;SDS011;63443;48.366;10.876;2022-11-20T03:10:25;5.57;;;5.07;;
49031;SDS011;63443;48.366;10.876;2022-11-20T03:12:54;6.68;;;6.13;;
49031;SDS011;63443;48.366;10.876;2022-11-20T03:15:20;5.57;;;5.00;;
49031;SDS011;63443;48.366;10.876;2022-11-20T03:17:47;5.88;;;4.88;;
49031;SDS011;63443;48.366;10.876;2022-11-20T03:20:13;6.20;;;4.60;;
49031;SDS011;63443;48.366;10.876;2022-11-20T03:22:38;10.15;;;5.40;;
49031;SDS011;63443;48.366;10.876;2022-11-20T03:25:04;4.75;;;4.35;;
49031;SDS011;63443;48.366;10.876;2022-11-20T03:27:34;4.25;;;3.85;;
49031;SDS011;63443;48.366;10.876;2022-11-20T03:30:00;4.28;;;3.90;;
49031;SDS011;63443;48.366;10.876;2022-11-20T03:32:25;6.45;;;4.72;;
49031;SDS011;63443;48.366;10.876;2022-11-20T03:34:51;4.85;;;4.32;;
49031;SDS011;63443;48.366;10.876;2022-11-20T03:37:17;4.68;;;4.28;;
49031;SDS011;63443;48.366;10.876;2022-11-20T03:39:42;5.82;;;4.65;;
49031;SDS011;63443;48.366;10.876;2022-11-20T03:42:08;4.60;;;3.75;;
49031;SDS011;63443;48.366;10.876;2022-11-20T03:44:54;4.75;;;4.35;;
49031;SDS011;63443;48.366;10.876;2022-11-20T03:47:19;4.82;;;4.43;;
49031;SDS011;63443;48.366;10.876;2022-11-20T03:49:45;5.93;;;4.30;;
49031;SDS011;63443;48.366;10.876;2022-11-20T03:52:11;4.25;;;3.83;;
49031;SDS011;63443;48.366;10.876;2022-11-20T03:54:36;4.85;;;4.13;;
49031;SDS011;63443;48.366;10.876;2022-11-20T03:57:02;5.18;;;4.68;;
49031;SDS011;63443;48.366;10.876;2022-11-20T03:59:27;5.22;;;4.40;;
49031;SDS011;63443;48.366;10.876;2022-11-20T04:01:53;4.47;;;4.07;;
49031;SDS011;63443;48.366;10.876;2022-11-20T04:04:18;4.05;;;3.72;;
49031;SDS011;63443;48.366;10.876;2022-11-20T04:06:44;4.50;;;3.60;;
49031;SDS011;63443;48.366;10.876;2022-11-20T04:09:09;5.85;;;4.45;;
49031;SDS011;63443;48.366;10.876;2022-11-20T04:11:36;4.95;;;4.32;;
49031;SDS011;63443;48.366;10.876;2022-11-20T04:14:04;4.40;;;3.88;;
49031;SDS011;63443;48.366;10.876;2022-11-20T04:16:32;6.10;;;4.07;;
49031;SDS011;63443;48.366;10.876;2022-11-20T04:19:00;4.18;;;3.67;;
49031;SDS011;63443;48.366;10.876;2022-11-20T04:21:28;6.47;;;4.35;;
49031;SDS011;63443;48.366;10.876;2022-11-20T04:23:54;4.85;;;4.47;;
49031;SDS011;63443;48.366;10.876;2022-11-20T04:26:20;5.05;;;4.55;;
49031;SDS011;63443;48.366;10.876;2022-11-20T04:28:47;5.65;;;4.55;;
49031;SDS011;63443;48.366;10.876;2022-11-20T04:31:14;3.83;;;3.53;;
49031;SDS011;63443;48.366;10.876;2022-11-20T04:33:41;4.00;;;3.10;;
49031;SDS011;63443;48.366;10.876;2022-11-20T04:36:07;5.32;;;3.60;;
49031;SDS011;63443;48.366;10.876;2022-11-20T04:38:37;4.03;;;3.72;;
49031;SDS011;63443;48.366;10.876;2022-11-20T04:41:04;4.18;;;3.80;;
49031;SDS011;63443;48.366;10.876;2022-11-20T04:43:33;4.00;;;3.60;;
49031;SDS011;63443;48.366;10.876;2022-11-20T04:45:59;4.70;;;4.30;;
49031;SDS011;63443;48.366;10.876;2022-11-20T04:48:26;3.90;;;3.47;;
49031;SDS011;63443;48.366;10.876;2022-11-20T04:50:52;3.92;;;3.63;;
49031;SDS011;63443;48.366;10.876;2022-11-20T04:53:18;4.78;;;4.38;;
49031;SDS011;63443;48.366;10.876;2022-11-20T04:55:45;4.28;;;3.88;;
49031;SDS011;63443;48.366;10.876;2022-11-20T04:58:11;3.85;;;3.55;;
49031;SDS011;63443;48.366;10.876;2022-11-20T05:00:37;4.90;;;3.88;;
49031;SDS011;63443;48.366;10.876;2022-11-20T05:03:02;4.72;;;4.32;;
49031;SDS011;63443;48.366;10.876;2022-11-20T05:05:28;5.38;;;4.40;;
49031;SDS011;63443;48.366;10.876;2022-11-20T05:07:57;9.02;;;4.60;;
49031;SDS011;63443;48.366;10.876;2022-11-20T05:10:24;5.65;;;5.13;;
